TimeEST,TemperatureF,Dew PointF,Humidity,Sea Level PressureIn,VisibilityMPH,Wind Direction,Wind SpeedMPH,Gust SpeedMPH,PrecipitationIn,Events,Conditions,WindDirDegrees,DateUTC
12:15 AM,31.5,27.3,85,30.01,5.0,SE,9.2,-,N/A,Snow,Light Snow,130,2014-02-20 05:15:00
12:35 AM,32.0,27.5,83,30.00,7.0,SE,8.1,-,N/A,,Clear,130,2014-02-20 05:35:00
12:55 AM,32.0,27.1,82,30.00,5.0,ESE,6.9,-,N/A,,Haze,120,2014-02-20 05:55:00
1:15 AM,32.0,27.0,82,29.99,7.0,ESE,6.9,-,N/A,,Clear,120,2014-02-20 06:15:00
1:35 AM,32.2,27.3,82,29.99,4.0,ESE,8.1,-,N/A,Snow,Light Snow,120,2014-02-20 06:35:00
1:55 AM,33.3,28.0,81,29.98,10.0,ESE,8.1,-,N/A,,Clear,120,2014-02-20 06:55:00
2:15 AM,34.0,28.2,79,29.97,5.0,ESE,9.2,-,N/A,Snow,Light Snow,120,2014-02-20 07:15:00
2:35 AM,34.2,27.9,78,29.96,10.0,ESE,9.2,-,N/A,,Clear,120,2014-02-20 07:35:00
2:55 AM,33.6,27.3,78,29.95,7.0,ESE,9.2,-,N/A,,Clear,120,2014-02-20 07:55:00
3:15 AM,32.7,27.0,79,29.94,7.0,SE,9.2,-,N/A,Snow,Light Snow,130,2014-02-20 08:15:00
3:35 AM,32.9,27.3,80,29.93,10.0,SE,12.7,-,N/A,,Clear,130,2014-02-20 08:35:00
3:55 AM,33.6,28.0,80,29.91,10.0,SE,13.8,-,N/A,,Clear,130,2014-02-20 08:55:00
4:15 AM,33.3,28.0,81,29.89,10.0,ESE,12.7,-,N/A,,Clear,120,2014-02-20 09:15:00
4:35 AM,34.2,27.9,78,29.87,4.0,SE,16.1,-,N/A,,Haze,130,2014-02-20 09:35:00
4:55 AM,35.1,28.0,76,29.85,10.0,ESE,16.1,-,N/A,,Clear,120,2014-02-20 09:55:00
5:15 AM,35.6,28.0,74,29.84,10.0,SE,16.1,-,N/A,,Mostly Cloudy,130,2014-02-20 10:15:00
5:35 AM,35.8,28.0,73,29.82,10.0,SE,18.4,-,N/A,,Overcast,130,2014-02-20 10:35:00
5:55 AM,35.6,28.8,76,29.84,3.0,SE,13.8,18.4,0.04,Rain,Light Rain,140,2014-02-20 10:55:00
6:15 AM,34.9,30.2,83,29.80,4.0,SE,16.1,-,0.04,Snow,Light Snow,130,2014-02-20 11:15:00
6:35 AM,34.9,30.6,84,29.78,7.0,SE,18.4,-,0.05,,Overcast,130,2014-02-20 11:35:00
6:55 AM,35.2,30.7,84,29.77,4.0,SE,17.3,-,0.07,,Overcast,130,2014-02-20 11:55:00
7:15 AM,35.2,31.3,85,29.76,1.8,SE,17.3,-,0.07,Snow,Light Snow,130,2014-02-20 12:15:00
7:35 AM,35.1,32.0,89,29.73,10.0,SE,16.1,-,0.12,,Overcast,130,2014-02-20 12:35:00
7:55 AM,35.4,32.0,87,29.73,5.0,SE,16.1,-,0.12,,Overcast,130,2014-02-20 12:55:00
8:15 AM,36.0,32.0,86,29.72,7.0,SE,13.8,19.6,N/A,,Overcast,140,2014-02-20 13:15:00
8:35 AM,36.7,32.0,83,29.71,7.0,SE,12.7,-,N/A,,Overcast,140,2014-02-20 13:35:00
8:55 AM,37.4,32.0,81,29.70,7.0,SSE,17.3,-,N/A,,Overcast,160,2014-02-20 13:55:00
9:15 AM,37.6,32.4,81,29.68,10.0,SSE,18.4,23.0,N/A,,Overcast,150,2014-02-20 14:15:00
9:35 AM,38.8,33.6,82,29.67,4.0,SSE,13.8,-,N/A,,Haze,160,2014-02-20 14:35:00
9:55 AM,39.7,34.5,82,29.68,5.0,South,12.7,-,N/A,,Haze,170,2014-02-20 14:55:00
10:15 AM,40.3,35.2,82,29.68,7.0,South,12.7,-,N/A,,Mostly Cloudy,180,2014-02-20 15:15:00
10:35 AM,40.6,36.1,84,29.69,7.0,South,12.7,-,N/A,,Overcast,190,2014-02-20 15:35:00
10:55 AM,41.2,36.9,85,29.68,10.0,South,16.1,-,N/A,,Overcast,180,2014-02-20 15:55:00
11:15 AM,41.2,36.7,84,29.69,5.0,South,10.4,-,N/A,,Overcast,190,2014-02-20 16:15:00
11:35 AM,41.5,37.0,84,29.67,7.0,South,13.8,-,N/A,,Overcast,180,2014-02-20 16:35:00
11:55 AM,42.1,37.4,83,29.66,10.0,South,11.5,-,N/A,,Overcast,180,2014-02-20 16:55:00
12:15 PM,42.1,37.4,83,29.63,10.0,South,12.7,-,N/A,,Mostly Cloudy,170,2014-02-20 17:15:00
12:35 PM,42.4,38.3,85,29.62,7.0,South,13.8,-,N/A,,Mostly Cloudy,170,2014-02-20 17:35:00
12:55 PM,43.3,39.2,85,29.61,5.0,SSE,9.2,-,N/A,,Overcast,160,2014-02-20 17:55:00
1:15 PM,43.0,39.4,87,29.60,5.0,South,9.2,-,N/A,,Overcast,170,2014-02-20 18:15:00
1:35 PM,44.1,41.4,90,29.59,5.0,South,10.4,-,N/A,,Overcast,170,2014-02-20 18:35:00
1:55 PM,44.8,42.8,93,29.59,3.0,South,9.2,-,N/A,,Overcast,170,2014-02-20 18:55:00
2:15 PM,45.1,43.5,94,29.58,4.0,South,11.5,-,N/A,,Overcast,170,2014-02-20 19:15:00
2:35 PM,45.5,44.4,96,29.55,2.5,South,13.8,-,N/A,Rain,Light Rain,170,2014-02-20 19:35:00
2:55 PM,45.9,45.3,98,29.54,0.5,South,12.7,-,N/A,,Unknown,170,2014-02-20 19:55:00
3:15 PM,46.2,45.9,99,29.54,1.0,South,13.8,-,N/A,,Overcast,170,2014-02-20 20:15:00
3:35 PM,46.4,46.2,99,29.54,2.0,South,16.1,-,N/A,,Overcast,170,2014-02-20 20:35:00
3:55 PM,46.6,46.2,99,29.53,3.0,South,12.7,-,N/A,,Overcast,170,2014-02-20 20:55:00
4:15 PM,46.2,45.9,99,29.52,2.5,South,12.7,-,N/A,,Overcast,170,2014-02-20 21:15:00
4:35 PM,46.2,45.9,99,29.52,3.0,South,11.5,-,N/A,,Overcast,180,2014-02-20 21:35:00
4:55 PM,46.4,45.9,98,29.51,5.0,South,11.5,-,N/A,,Overcast,180,2014-02-20 21:55:00
5:15 PM,46.6,46.0,98,29.51,7.0,South,13.8,-,N/A,,Overcast,180,2014-02-20 22:15:00
5:35 PM,47.1,46.6,98,29.49,5.0,South,12.7,20.7,N/A,Rain,Light Rain,190,2014-02-20 22:35:00
5:55 PM,46.4,46.0,99,29.47,1.2,South,13.8,-,N/A,,Overcast,170,2014-02-20 22:55:00
6:15 PM,47.3,46.9,99,29.46,7.0,South,17.3,-,N/A,,Mostly Cloudy,180,2014-02-20 23:15:00
6:35 PM,48.2,47.8,99,29.44,7.0,South,16.1,-,N/A,,Scattered Clouds,180,2014-02-20 23:35:00
6:55 PM,48.9,47.7,95,29.44,7.0,South,19.6,24.2,N/A,,Scattered Clouds,170,2014-02-20 23:55:00
7:15 PM,49.5,47.8,94,29.43,5.0,South,20.7,25.3,N/A,,Scattered Clouds,170,2014-02-21 00:15:00
7:35 PM,49.8,47.8,93,29.44,7.0,South,20.7,-,N/A,,Clear,170,2014-02-21 00:35:00
7:55 PM,50.7,48.2,91,29.42,10.0,South,24.2,29.9,N/A,,Clear,170,2014-02-21 00:55:00
8:15 PM,51.8,48.7,89,29.42,10.0,South,19.6,27.6,N/A,,Scattered Clouds,170,2014-02-21 01:15:00
8:35 PM,52.2,48.7,88,29.39,7.0,South,15.0,-,N/A,Rain,Light Rain,170,2014-02-21 01:35:00
8:55 PM,52.0,48.7,89,29.43,5.0,SSW,21.9,28.8,0.06,Rain,Rain,210,2014-02-21 01:55:00
9:15 PM,50.0,48.4,94,29.44,7.0,WSW,18.4,27.6,0.02,Rain,Light Rain,240,2014-02-21 02:15:00
9:35 PM,46.6,45.5,96,29.49,10.0,South,18.4,-,0.02,,Overcast,190,2014-02-21 02:35:00
9:55 PM,44.8,44.2,98,29.49,10.0,WSW,20.7,-,0.02,,Overcast,240,2014-02-21 02:55:00
10:15 PM,45.0,40.5,84,29.51,10.0,WSW,26.5,29.9,N/A,,Overcast,250,2014-02-21 03:15:00
10:35 PM,41.4,34.9,78,29.55,10.0,West,17.3,-,N/A,,Overcast,280,2014-02-21 03:35:00
10:55 PM,39.2,34.0,82,29.56,10.0,West,24.2,28.8,N/A,,Overcast,260,2014-02-21 03:55:00
11:15 PM,38.8,32.4,78,29.57,10.0,West,24.2,32.2,N/A,,Overcast,270,2014-02-21 04:15:00
11:35 PM,37.6,30.9,77,29.58,10.0,West,20.7,33.4,N/A,,Overcast,260,2014-02-21 04:35:00
11:55 PM,36.5,30.2,78,29.57,10.0,West,18.4,-,N/A,,Overcast,260,2014-02-21 04:55:00